createdAt,value
2019-02-07T09:31:30.404Z,101.59
2019-02-07T09:32:30.869Z,101.60
2019-02-07T09:33:32.068Z,101.65
2019-02-07T09:34:32.524Z,101.63
2019-02-07T09:35:33.361Z,101.67
2019-02-07T09:36:34.326Z,101.77
2019-02-07T09:37:34.966Z,101.76
2019-02-07T09:38:35.481Z,102.01
2019-02-07T09:39:35.244Z,102.07
2019-02-07T09:40:36.903Z,101.99
2019-02-07T09:41:37.039Z,101.93
2019-02-07T09:42:37.901Z,102.01
2019-02-07T09:43:38.550Z,101.96
2019-02-07T09:44:39.110Z,101.93
2019-02-07T09:45:39.912Z,101.77
2019-02-07T09:46:40.453Z,101.80
2019-02-07T09:47:39.923Z,101.95
2019-02-07T09:48:41.480Z,102.22
2019-02-07T09:49:40.933Z,102.19
2019-02-07T09:50:42.585Z,102.15
2019-02-07T09:51:43.236Z,102.19
2019-02-07T09:52:43.752Z,102.06
2019-02-07T09:53:44.121Z,102.03
2019-02-07T09:54:44.759Z,101.95
2019-02-07T09:55:44.344Z,102.04
2019-02-07T09:56:45.943Z,102.12
2019-02-07T09:57:46.434Z,101.98
2019-02-07T09:58:47.059Z,101.95
2019-02-07T09:59:48.042Z,102.18
2019-02-07T10:00:48.725Z,102.26
2019-02-07T10:01:49.260Z,102.32
2019-02-07T10:02:50.227Z,102.23
2019-02-07T10:03:51.036Z,102.40
2019-02-07T10:04:50.638Z,102.40
2019-02-07T10:05:52.363Z,102.38
2019-02-07T10:06:52.829Z,102.65
2019-02-07T10:07:53.300Z,102.61
2019-02-07T10:08:53.760Z,102.58
2019-02-07T10:09:54.369Z,102.29
2019-02-07T10:10:54.938Z,102.05
2019-02-07T10:11:55.752Z,102.40
2019-02-07T10:12:55.195Z,102.36
2019-02-07T10:13:56.673Z,102.13
2019-02-07T10:14:57.431Z,101.78
2019-02-07T10:15:58.089Z,101.83
2019-02-07T10:16:58.607Z,101.69
2019-02-07T10:17:59.115Z,101.28
2019-02-07T10:18:59.691Z,101.45
2019-02-07T10:20:00.544Z,101.43
2019-02-07T10:21:00.016Z,101.48
2019-02-07T10:21:12.073Z,101.64
2019-02-07T10:22:13.478Z,101.65
2019-02-07T10:23:13.079Z,101.61
2019-02-07T10:24:14.975Z,101.51
2019-02-07T10:25:15.501Z,101.52
2019-02-07T10:26:16.189Z,101.51
2019-02-07T10:27:16.846Z,101.48
2019-02-07T10:28:17.356Z,101.44
2019-02-07T10:29:17.932Z,101.26
2019-02-07T10:30:18.515Z,101.20
2019-02-07T10:31:18.218Z,101.16
2019-02-07T10:32:19.970Z,100.72
2019-02-07T10:33:20.398Z,100.35
2019-02-07T10:34:21.152Z,100.18
2019-02-07T10:35:23.106Z,100.11
2019-02-07T10:36:21.576Z,100.07
2019-02-07T10:37:23.084Z,100.25
2019-02-07T10:38:23.580Z,100.08
2019-02-07T10:39:23.108Z,100.37
2019-02-07T10:40:24.595Z,99.85
2019-02-07T10:41:25.138Z,100.01
2019-02-07T10:42:25.644Z,100.56
2019-02-07T10:43:26.238Z,101.23
2019-02-07T10:44:26.737Z,101.02
2019-02-07T10:45:27.283Z,101.45
2019-02-07T10:46:27.294Z,101.47
2019-02-07T10:47:30.475Z,101.61
2019-02-07T10:48:27.487Z,101.96
2019-02-07T10:49:29.263Z,102.49
2019-02-07T10:50:29.488Z,102.54
2019-02-07T10:51:30.171Z,102.46
2019-02-07T10:52:30.604Z,102.51
2019-02-07T10:53:31.460Z,102.62
2019-02-07T10:54:32.072Z,102.28
2019-02-07T10:55:32.852Z,101.52
2019-02-07T10:56:31.904Z,100.53
2019-02-07T10:57:33.493Z,99.67
2019-02-07T10:58:34.227Z,99.21
2019-02-07T10:59:34.829Z,99.36
2019-02-07T11:00:35.357Z,98.96
2019-02-07T11:01:35.040Z,98.60
2019-02-07T11:02:36.592Z,99.08
2019-02-07T11:03:37.192Z,99.26
2019-02-07T11:04:36.648Z,98.93
2019-02-07T11:05:38.226Z,98.69
2019-02-07T11:06:38.827Z,98.50
2019-02-07T11:07:39.572Z,98.10
2019-02-07T11:08:40.154Z,97.91
2019-02-07T11:09:40.707Z,98.47
2019-02-07T11:09:51.252Z,98.04
2019-02-07T11:10:52.726Z,98.01
2019-02-07T11:11:53.303Z,98.15
2019-02-07T11:12:53.880Z,97.93
2019-02-07T11:13:54.457Z,98.41
2019-02-07T11:14:54.019Z,97.91
2019-02-07T11:15:55.804Z,98.52
2019-02-07T11:16:56.780Z,98.47
2019-02-07T11:17:57.420Z,98.73
2019-02-07T11:18:57.909Z,98.94
2019-02-07T11:19:58.347Z,99.07
2019-02-07T11:20:58.678Z,98.34
2019-02-07T11:21:59.292Z,98.71
2019-02-07T11:22:59.739Z,98.51
2019-02-07T11:24:00.361Z,98.89
2019-02-07T11:24:59.421Z,99.48
2019-02-07T11:26:01.085Z,98.76
2019-02-07T11:27:01.593Z,98.30
2019-02-07T11:28:10.242Z,98.35
2019-02-07T11:29:02.102Z,98.42
2019-02-07T11:30:03.629Z,98.17
2019-02-07T11:31:04.199Z,97.67
2019-02-07T11:32:03.717Z,98.56
2019-02-07T11:33:05.500Z,98.21
2019-02-07T11:34:06.247Z,97.70
2019-02-07T11:35:06.399Z,97.63
2019-02-07T11:36:07.349Z,97.76
2019-02-07T11:37:07.922Z,97.65
2019-02-07T11:38:08.621Z,97.17
2019-02-07T11:39:08.733Z,97.37
2019-02-07T11:40:08.369Z,97.31
2019-02-07T11:41:09.618Z,97.27
2019-02-07T11:42:10.286Z,96.67
2019-02-07T11:43:11.180Z,96.66
2019-02-07T11:44:11.812Z,97.06
2019-02-07T11:45:12.556Z,96.95
2019-02-07T11:46:13.236Z,96.92
2019-02-07T11:47:14.215Z,96.49
2019-02-07T11:48:14.838Z,96.32
2019-02-07T11:49:14.563Z,96.10
2019-02-07T11:50:16.129Z,96.50
2019-02-07T11:51:16.141Z,96.64
2019-02-07T11:52:17.011Z,96.07
2019-02-07T11:53:17.767Z,95.71
2019-02-07T11:54:18.532Z,95.97
2019-02-07T11:55:19.213Z,95.33
2019-02-07T11:56:19.843Z,94.88
2019-02-07T11:57:19.633Z,95.28
2019-02-07T11:58:21.083Z,95.78
2019-02-07T11:58:31.127Z,94.95
2019-02-07T11:59:32.922Z,95.01
2019-02-07T12:00:33.749Z,95.48
2019-02-07T12:01:34.353Z,95.21
2019-02-07T12:02:34.989Z,95.43
2019-02-07T12:03:35.927Z,95.16
2019-02-07T12:04:38.265Z,95.48
2019-02-07T12:05:37.057Z,95.27
2019-02-07T12:06:37.984Z,95.65
2019-02-07T12:07:37.638Z,95.36
2019-02-07T12:08:39.422Z,94.86
2019-02-07T12:09:40.356Z,94.91
2019-02-07T12:10:40.992Z,95.12
2019-02-07T12:11:41.175Z,94.86
2019-02-07T12:12:41.876Z,94.72
2019-02-07T12:13:42.766Z,94.13
2019-02-07T12:14:43.594Z,94.22
2019-02-07T12:15:43.638Z,93.79
2019-02-07T12:16:42.834Z,93.16
2019-02-07T12:17:44.145Z,93.38
2019-02-07T12:18:45.890Z,93.43
2019-02-07T12:19:45.481Z,93.17
2019-02-07T12:20:46.476Z,92.06
2019-02-07T12:21:47.300Z,92.07
2019-02-07T12:22:47.564Z,91.79
2019-02-07T12:23:48.439Z,92.16
2019-02-07T12:24:48.428Z,90.83
2019-02-07T12:25:49.831Z,90.48
2019-02-07T12:26:50.731Z,90.89
2019-02-07T12:27:51.487Z,91.66
2019-02-07T12:28:52.409Z,91.81
2019-02-07T12:29:53.100Z,92.15
2019-02-07T12:30:54.060Z,92.07
2019-02-07T12:31:54.960Z,91.82
2019-02-07T12:32:54.571Z,91.60
2019-02-07T12:33:56.386Z,91.52
2019-02-07T12:34:55.665Z,91.40
2019-02-07T12:35:57.688Z,91.28
2019-02-07T12:36:58.391Z,91.80
2019-02-07T12:37:59.038Z,91.29
2019-02-07T12:38:59.854Z,91.11
2019-02-07T12:40:00.764Z,90.91
2019-02-07T12:41:01.571Z,91.32
2019-02-07T12:42:01.301Z,91.76
2019-02-07T12:43:02.948Z,91.39
2019-02-07T12:44:03.248Z,91.04
2019-02-07T12:45:03.942Z,91.47
2019-02-07T12:45:14.560Z,91.46
2019-02-07T12:46:15.868Z,91.56
2019-02-07T12:47:15.780Z,91.33
2019-02-07T12:48:16.990Z,91.31
2019-02-07T12:49:28.736Z,90.83
2019-02-07T12:50:16.903Z,91.12
2019-02-07T12:51:18.481Z,90.75
2019-02-07T12:52:18.257Z,90.86
2019-02-07T12:53:19.892Z,90.79
2019-02-07T12:54:20.841Z,89.56
2019-02-07T12:55:21.682Z,88.92
2019-02-07T12:56:21.469Z,89.22
2019-02-07T12:57:23.250Z,89.63
2019-02-07T12:58:23.825Z,89.73
2019-02-07T12:59:24.612Z,89.72
2019-02-07T13:00:24.354Z,89.20
2019-02-07T13:01:26.084Z,89.29
2019-02-07T13:02:26.247Z,89.54
2019-02-07T13:03:26.972Z,89.35
2019-02-07T13:04:27.775Z,88.47
2019-02-07T13:05:28.448Z,88.36
2019-02-07T13:06:28.489Z,87.09
2019-02-07T13:07:28.848Z,87.12
2019-02-07T13:08:29.660Z,87.36
2019-02-07T13:09:29.461Z,86.75
2019-02-07T13:10:31.045Z,85.73
2019-02-07T13:11:31.796Z,85.41
2019-02-07T13:12:31.376Z,85.59
2019-02-07T13:13:32.060Z,85.13
2019-02-07T13:14:32.884Z,85.04
2019-02-07T13:15:32.968Z,84.30
2019-02-07T13:16:34.646Z,84.26
2019-02-07T13:17:34.547Z,84.70
2019-02-07T13:18:35.421Z,84.47
2019-02-07T13:19:40.693Z,83.85
2019-02-07T13:20:36.224Z,83.90
2019-02-07T13:21:38.001Z,83.74
2019-02-07T13:22:37.846Z,84.16
2019-02-07T13:23:39.474Z,83.62
2019-02-07T13:24:40.316Z,82.86
2019-02-07T13:25:39.956Z,82.97
2019-02-07T13:26:40.823Z,83.52
2019-02-07T13:27:41.395Z,83.18
2019-02-07T13:28:43.192Z,83.18
2019-02-07T13:29:43.768Z,83.25
2019-02-07T13:30:43.432Z,83.90
2019-02-07T13:31:44.032Z,83.84
2019-02-07T13:32:45.669Z,84.31
2019-02-07T13:33:45.539Z,83.18
2019-02-07T13:34:46.221Z,83.54
2019-02-07T13:35:47.001Z,83.29
2019-02-07T13:36:47.886Z,82.95
2019-02-07T13:37:49.494Z,82.87
2019-02-07T13:38:50.277Z,82.87
2019-02-07T13:39:50.948Z,82.73
2019-02-07T13:40:51.838Z,82.75
2019-02-07T13:41:52.684Z,82.56
2019-02-07T13:42:53.366Z,82.68
2019-02-07T13:43:52.484Z,81.78
2019-02-07T13:44:54.364Z,82.16
2019-02-07T13:45:54.454Z,81.84
2019-02-07T13:46:55.097Z,81.17
2019-02-07T13:47:04.153Z,80.82
2019-02-07T13:48:05.730Z,80.85
2019-02-07T13:49:06.439Z,81.84
2019-02-07T13:50:07.337Z,81.39
2019-02-07T13:51:07.934Z,80.98
2019-02-07T13:52:08.274Z,80.83
2019-02-07T13:53:07.909Z,79.71
2019-02-07T13:54:08.982Z,79.72
2019-02-07T13:55:09.850Z,79.74
2019-02-07T13:56:10.586Z,80.02
2019-02-07T13:57:11.201Z,80.11
2019-02-07T13:58:11.142Z,80.13
2019-02-07T13:59:12.743Z,80.28
2019-02-07T14:00:13.355Z,80.07
2019-02-07T14:01:13.977Z,79.74
2019-02-07T14:02:13.794Z,79.67
2019-02-07T14:03:15.485Z,79.71
2019-02-07T14:04:16.264Z,79.48
2019-02-07T14:05:17.238Z,78.87
2019-02-07T14:06:17.972Z,79.70
2019-02-07T14:07:18.742Z,79.57
2019-02-07T14:08:18.822Z,79.56
2019-02-07T14:09:19.673Z,79.81
2019-02-07T14:10:19.487Z,79.50
2019-02-07T14:11:20.561Z,79.96
2019-02-07T14:12:21.260Z,80.19
2019-02-07T14:13:20.838Z,80.34
2019-02-07T14:14:22.452Z,80.17
2019-02-07T14:15:23.262Z,79.98
2019-02-07T14:16:24.083Z,79.54
2019-02-07T14:17:24.972Z,80.21
2019-02-07T14:18:25.736Z,80.17
2019-02-07T14:19:25.546Z,80.43
2019-02-07T14:20:27.450Z,80.43
2019-02-07T14:21:28.059Z,80.60
2019-02-07T14:22:28.416Z,80.90
2019-02-07T14:23:29.890Z,80.32
2019-02-07T14:24:28.912Z,80.26
2019-02-07T14:25:30.534Z,80.52
2019-02-07T14:26:31.262Z,80.35
2019-02-07T14:27:31.093Z,80.36
2019-02-07T14:28:33.015Z,80.57
2019-02-07T14:29:33.822Z,80.63
2019-02-07T14:30:34.066Z,80.50
2019-02-07T14:31:34.704Z,80.96
2019-02-07T14:32:35.382Z,80.38
2019-02-07T14:33:36.092Z,80.84
2019-02-07T14:34:36.780Z,80.24
2019-02-07T14:35:37.455Z,80.53
2019-02-07T14:36:36.831Z,79.70
2019-02-07T14:37:38.590Z,79.49
2019-02-07T14:38:39.386Z,78.80
2019-02-07T14:38:51.430Z,78.82
2019-02-07T14:39:53.154Z,78.80
2019-02-07T14:40:53.942Z,78.27
2019-02-07T14:41:54.836Z,77.71
2019-02-07T14:42:54.809Z,77.79
2019-02-07T14:43:56.871Z,77.80
2019-02-07T14:44:55.805Z,77.91
2019-02-07T14:45:57.704Z,77.39
2019-02-07T14:46:57.082Z,77.35
2019-02-07T14:47:58.870Z,77.55
2019-02-07T14:48:59.617Z,77.38
2019-02-07T14:50:00.004Z,77.32
2019-02-07T14:50:59.913Z,77.12
2019-02-07T14:52:01.805Z,77.42
2019-02-07T14:53:02.228Z,77.49
2019-02-07T14:54:01.890Z,77.24
2019-02-07T14:55:02.138Z,77.50
2019-02-07T14:59:20.608Z,77.53
2019-02-07T15:00:20.639Z,76.30
2019-02-07T15:01:20.901Z,76.42
2019-02-07T15:02:20.999Z,76.38
2019-02-07T15:03:21.782Z,76.01
2019-02-07T15:04:22.770Z,76.29
2019-02-07T15:05:21.836Z,75.66
2019-02-07T15:06:23.690Z,75.91
2019-02-07T15:07:26.570Z,75.16
2019-02-07T15:08:24.117Z,74.87
2019-02-07T15:09:25.979Z,75.04
2019-02-07T15:10:27.739Z,74.79
2019-02-07T15:11:28.887Z,74.46
2019-02-07T15:12:26.855Z,75.08
2019-02-07T15:13:34.981Z,75.17
2019-02-07T15:14:28.091Z,75.37
2019-02-07T15:15:30.987Z,74.94
2019-02-07T15:16:29.521Z,75.23
2019-02-07T15:17:33.469Z,75.12
2019-02-07T15:18:33.676Z,74.81
2019-02-07T15:19:33.862Z,74.49
2019-02-07T15:20:31.523Z,74.71
2019-02-07T15:21:34.128Z,74.56
2019-02-07T15:22:32.519Z,74.51
2019-02-07T15:23:34.380Z,74.05
2019-02-07T15:24:41.818Z,73.66
2019-02-07T15:25:34.313Z,74.16
2019-02-07T15:26:38.704Z,73.79
2019-02-07T15:27:42.996Z,74.24
2019-02-07T15:28:36.604Z,73.90
2019-02-07T15:29:36.984Z,73.99
2019-02-07T15:30:38.607Z,74.14
2019-02-07T15:31:38.043Z,74.47
2019-02-07T15:32:40.442Z,74.42
2019-02-07T15:35:55.376Z,74.72
2019-02-07T15:36:56.226Z,75.25
2019-02-07T15:38:00.954Z,75.57
2019-02-07T15:38:57.035Z,75.51
2019-02-07T15:39:57.372Z,75.55
2019-02-07T15:41:06.348Z,75.90
2019-02-07T15:42:06.542Z,76.03
2019-02-07T15:43:07.363Z,76.15
2019-02-07T15:44:10.682Z,76.50
2019-02-07T15:45:11.293Z,76.63
2019-02-07T15:46:09.396Z,75.95
2019-02-07T15:47:09.619Z,76.02
2019-02-07T15:48:10.269Z,76.23
2019-02-07T15:49:10.844Z,76.53
2019-02-07T15:50:12.171Z,76.31
2019-02-07T15:51:12.958Z,76.39
2019-02-07T15:52:14.203Z,76.38
2019-02-07T15:53:14.438Z,76.44
2019-02-07T15:54:12.981Z,76.47
2019-02-07T15:55:56.407Z,76.76
2019-02-07T15:57:01.132Z,76.93
2019-02-07T15:58:37.921Z,77.03
2019-02-07T15:59:55.753Z,77.24
2019-02-07T16:00:38.344Z,77.53
2019-02-07T16:01:38.508Z,77.78
2019-02-07T16:02:38.739Z,78.02
2019-02-07T16:03:46.735Z,77.95
2019-02-07T16:04:42.510Z,78.07
2019-02-07T16:05:41.027Z,78.28
2019-02-07T16:06:41.089Z,78.46
2019-02-07T16:07:42.936Z,78.73
2019-02-07T16:08:44.233Z,78.75
2019-02-07T16:09:42.735Z,78.80
2019-02-07T16:10:44.610Z,78.92
2019-02-07T16:11:45.557Z,79.25
2019-02-07T16:12:46.292Z,79.55
2019-02-07T16:14:05.206Z,79.85
2019-02-07T16:15:02.864Z,79.81
2019-02-07T16:16:03.606Z,79.71
2019-02-07T16:17:05.563Z,80.04
2019-02-07T16:18:05.641Z,80.33
2019-02-07T16:19:06.131Z,80.75
2019-02-07T16:20:06.009Z,80.72
2019-02-07T16:21:07.493Z,81.01
2019-02-07T16:22:08.380Z,80.47
2019-02-07T16:23:08.537Z,80.75
2019-02-07T16:24:16.762Z,80.26
2019-02-07T16:25:09.290Z,80.31
2019-02-07T16:26:16.980Z,80.49
2019-02-07T16:27:10.342Z,80.52
2019-02-07T16:28:10.639Z,80.69
2019-02-07T16:29:11.422Z,81.16
2019-02-07T16:30:12.625Z,81.47
2019-02-07T16:31:13.122Z,81.52
2019-02-07T16:32:21.735Z,82.15
2019-02-07T16:33:15.506Z,82.41
2019-02-07T16:34:13.259Z,82.59
2019-02-07T16:35:13.880Z,82.87
2019-02-07T16:36:14.116Z,82.76
2019-02-07T16:37:17.827Z,82.85
2019-02-07T16:38:14.336Z,83.29
2019-02-07T16:39:15.791Z,83.40
2019-02-07T16:40:16.234Z,83.84
2019-02-07T16:41:16.165Z,84.06
2019-02-07T16:42:19.013Z,84.34
2019-02-07T16:46:54.449Z,83.63
2019-02-07T16:48:38.836Z,81.47
2019-02-07T16:49:37.580Z,81.20
2019-02-07T16:50:39.285Z,81.37
2019-02-07T16:51:39.086Z,81.24
2019-02-07T16:52:36.573Z,82.19
2019-02-07T16:52:42.197Z,80.84
2019-02-07T16:53:43.082Z,80.37
2019-02-07T16:58:10.875Z,80.36
2019-02-07T16:59:11.585Z,81.09
2019-02-07T17:00:05.559Z,80.93
2019-02-07T17:01:04.573Z,80.83
2019-02-07T17:02:04.999Z,80.66
2019-02-07T17:03:05.540Z,80.98
2019-02-07T17:04:05.947Z,80.86
2019-02-07T17:05:07.858Z,79.81
2019-02-07T17:06:07.321Z,80.25
2019-02-07T17:07:09.144Z,79.92
2019-02-07T17:08:09.134Z,80.02
2019-02-07T17:09:12.747Z,79.21
2019-02-07T17:10:53.559Z,79.42
2019-02-07T17:11:53.642Z,79.15
2019-02-07T17:12:53.825Z,79.07
2019-02-07T17:13:53.950Z,79.49
2019-02-07T17:15:01.292Z,79.87
2019-02-07T17:18:11.112Z,80.33
2019-02-07T17:19:11.317Z,80.32
2019-02-07T17:20:14.782Z,80.52
2019-02-07T17:21:12.956Z,80.68
2019-02-07T17:25:31.093Z,80.58
2019-02-07T17:26:31.688Z,80.52
2019-02-07T17:27:34.336Z,80.61
2019-02-07T17:31:13.197Z,80.74
2019-02-07T17:32:07.911Z,81.08
2019-02-07T17:33:13.488Z,81.32
2019-02-07T17:34:08.343Z,81.53
2019-02-07T17:35:06.973Z,81.46
2019-02-07T17:36:08.938Z,81.50
2019-02-07T17:37:08.587Z,81.50
2019-02-07T17:38:10.503Z,81.66
2019-02-07T17:39:09.571Z,81.57
2019-02-07T17:40:10.442Z,81.52
2019-02-07T17:41:18.988Z,81.36
2019-02-07T17:42:12.268Z,81.54
2019-02-07T17:43:20.732Z,81.77
2019-02-07T17:44:15.519Z,81.92
2019-02-07T17:45:14.166Z,81.74
2019-02-07T17:46:16.118Z,81.12
2019-02-07T17:47:16.861Z,80.50
2019-02-07T17:48:17.366Z,80.68
2019-02-07T17:49:17.602Z,80.06
2019-02-07T17:50:18.223Z,80.15
2019-02-07T17:51:23.203Z,80.24
2019-02-07T17:52:17.938Z,80.47
2019-02-07T17:53:19.487Z,80.32
2019-02-07T17:54:19.324Z,79.64
2019-02-07T17:55:40.965Z,78.39
2019-02-07T17:56:32.442Z,78.32
2019-02-07T17:57:33.326Z,78.24
2019-02-07T17:58:35.945Z,77.77
2019-02-07T17:59:36.469Z,78.11
2019-02-07T18:00:34.665Z,77.11
2019-02-07T18:01:35.096Z,77.11
2019-02-07T18:02:36.483Z,76.80
2019-02-07T18:03:36.190Z,76.63
2019-02-07T18:04:37.972Z,76.73
2019-02-07T18:05:45.148Z,76.75
2019-02-07T18:06:38.231Z,76.94
2019-02-07T18:07:39.122Z,77.34
2019-02-07T18:08:40.013Z,77.05
2019-02-07T18:09:41.133Z,77.28
2019-02-07T18:10:42.184Z,77.69
2019-02-07T18:11:41.944Z,77.40
2019-02-07T18:12:43.659Z,77.28
2019-02-07T18:13:44.550Z,77.09
2019-02-07T18:14:44.953Z,76.82
2019-02-07T18:15:45.890Z,76.71
2019-02-07T18:16:45.301Z,76.91
2019-02-07T18:17:45.954Z,77.18
2019-02-07T18:18:47.346Z,77.43
2019-02-07T18:19:48.305Z,77.25
2019-02-07T18:20:48.082Z,77.57
2019-02-07T18:21:49.895Z,77.61
2019-02-07T18:22:49.981Z,77.87
2019-02-07T18:23:49.576Z,77.75
2019-02-07T18:24:51.336Z,77.93
2019-02-07T18:25:54.282Z,77.81
2019-02-07T18:26:54.010Z,77.31
2019-02-07T18:27:52.533Z,77.29
2019-02-07T18:28:52.768Z,77.45
2019-02-07T18:29:54.143Z,77.71
2019-02-07T18:30:55.743Z,77.83
2019-02-07T18:31:53.609Z,78.06
2019-02-07T18:32:53.675Z,78.29
2019-02-07T18:33:54.518Z,78.14
2019-02-07T18:34:56.290Z,78.08
2019-02-07T18:35:57.281Z,78.47
2019-02-07T18:36:57.113Z,78.23
2019-02-07T18:37:57.439Z,78.42
2019-02-07T18:39:00.452Z,78.40
2019-02-07T18:39:58.459Z,78.46
2019-02-07T18:41:02.451Z,78.65
2019-02-07T18:41:59.631Z,79.07
2019-02-07T18:43:00.476Z,78.88
2019-02-07T18:44:02.046Z,78.95
2019-02-07T18:45:01.694Z,79.28
2019-02-07T18:46:02.404Z,79.71
2019-02-07T18:47:04.155Z,79.92
2019-02-07T18:48:03.152Z,79.96
2019-02-07T18:49:04.487Z,79.77
2019-02-07T18:50:05.420Z,80.02
2019-02-07T18:51:06.274Z,80.10
2019-02-07T18:52:06.818Z,80.40
2019-02-07T18:53:05.789Z,80.68
2019-02-07T18:54:07.428Z,81.45
2019-02-07T18:55:08.107Z,81.50
2019-02-07T18:56:08.414Z,81.53
2019-02-07T18:57:09.036Z,81.43
2019-02-07T18:58:09.751Z,80.78
2019-02-07T18:59:10.564Z,80.72
2019-02-07T19:00:11.356Z,80.43
2019-02-07T19:01:11.080Z,79.95
2019-02-07T19:02:11.868Z,79.87
2019-02-07T19:03:13.604Z,79.97
2019-02-07T19:04:13.153Z,80.37
2019-02-07T19:05:23.040Z,80.74
2019-02-07T19:06:23.431Z,80.75
2019-02-07T19:07:23.660Z,80.78
2019-02-07T19:08:31.951Z,80.95
2019-02-07T19:09:32.121Z,80.84
2019-02-07T19:10:32.701Z,80.76
2019-02-07T19:11:25.886Z,81.34
2019-02-07T19:12:27.694Z,81.17
2019-02-07T19:13:30.275Z,81.00
2019-02-07T19:14:28.150Z,81.09
2019-02-07T19:15:36.565Z,81.16
2019-02-07T19:16:29.852Z,81.72
2019-02-07T19:17:30.926Z,81.60
2019-02-07T19:18:30.122Z,81.47
2019-02-07T19:19:31.244Z,81.96
2019-02-07T19:20:31.916Z,82.03
2019-02-07T19:21:31.227Z,81.72
2019-02-07T19:22:32.533Z,81.48
2019-02-07T19:23:35.052Z,81.82
2019-02-07T19:24:32.824Z,81.80
2019-02-07T19:25:33.113Z,81.99
2019-02-07T19:26:33.179Z,81.89
2019-02-07T19:27:35.019Z,82.11
2019-02-07T19:28:35.768Z,82.46
2019-02-07T19:29:35.436Z,82.04
2019-02-07T19:30:36.294Z,82.20
2019-02-07T19:31:37.043Z,82.49
2019-02-07T19:32:37.633Z,82.45
2019-02-07T19:33:38.720Z,82.09
2019-02-07T19:34:38.873Z,82.49
2019-02-07T19:35:38.772Z,82.49
2019-02-07T19:36:38.839Z,82.47
2019-02-07T19:37:40.344Z,82.33
2019-02-07T19:38:40.313Z,82.45
2019-02-07T19:39:41.270Z,82.62
2019-02-07T19:40:42.362Z,83.06
2019-02-07T19:41:42.834Z,83.10
2019-02-07T19:42:42.829Z,83.26
2019-02-07T19:43:42.053Z,83.36
2019-02-07T19:44:43.637Z,83.35
2019-02-07T19:45:44.553Z,83.67
2019-02-07T19:46:44.630Z,83.43
2019-02-07T19:47:44.668Z,83.42
2019-02-07T19:48:45.276Z,83.14
2019-02-07T19:49:45.526Z,82.97
2019-02-07T19:50:46.321Z,82.70
2019-02-07T19:51:47.006Z,82.58
2019-02-07T19:52:47.906Z,82.64
2019-02-07T19:53:48.823Z,82.59
2019-02-07T19:54:49.747Z,82.59
2019-02-07T19:55:49.995Z,82.67
2019-02-07T19:56:49.941Z,82.37
2019-02-07T19:57:49.909Z,82.33
2019-02-07T19:58:51.590Z,82.52
2019-02-07T19:59:50.695Z,82.65
2019-02-07T20:00:51.491Z,82.15
2019-02-07T20:01:53.276Z,82.09
2019-02-07T20:02:54.047Z,81.96
2019-02-07T20:03:54.771Z,81.75
2019-02-07T20:04:58.007Z,81.73
2019-02-07T20:05:55.147Z,81.61
2019-02-07T20:06:56.314Z,81.70
2019-02-07T20:07:55.720Z,81.35
2019-02-07T20:08:55.723Z,81.29
2019-02-07T20:09:57.453Z,80.99
2019-02-07T20:11:57.027Z,81.07
2019-02-07T20:12:54.370Z,81.07
2019-02-07T20:13:54.395Z,81.10
2019-02-07T20:14:55.147Z,81.14
2019-02-07T20:15:57.843Z,81.26
2019-02-07T20:16:56.531Z,81.62
2019-02-07T20:17:59.804Z,81.42
2019-02-07T20:18:57.405Z,81.40
2019-02-07T20:19:58.250Z,81.17
2019-02-07T20:20:58.494Z,81.58
2019-02-07T20:22:00.428Z,81.24
2019-02-07T20:23:00.432Z,81.35
2019-02-07T20:24:00.454Z,81.62
2019-02-07T20:25:01.347Z,81.38
2019-02-07T20:26:03.279Z,81.54
2019-02-07T20:27:10.318Z,81.78
2019-02-07T20:28:03.597Z,81.92
2019-02-07T20:29:06.398Z,81.46
2019-02-07T20:30:03.989Z,81.00
2019-02-07T20:31:06.644Z,81.28
2019-02-07T20:32:04.455Z,81.51
2019-02-07T20:33:06.355Z,81.66
2019-02-07T20:34:05.951Z,81.62
2019-02-07T20:35:10.153Z,81.58
2019-02-07T20:36:07.594Z,81.56
2019-02-07T20:37:27.347Z,81.72
2019-02-07T20:38:08.836Z,81.27
2019-02-07T20:39:08.962Z,81.17
2019-02-07T20:40:12.731Z,81.56
2019-02-07T20:41:27.087Z,81.41
2019-02-07T20:42:10.367Z,81.41
2019-02-07T20:43:10.924Z,81.65
2019-02-07T20:44:11.579Z,81.70
2019-02-07T20:45:13.106Z,81.63
2019-02-07T20:46:12.365Z,81.66
2019-02-07T20:47:13.301Z,81.77
2019-02-07T20:48:15.144Z,81.62
2019-02-07T20:49:15.648Z,82.03
2019-02-07T20:50:16.537Z,81.69
2019-02-07T20:51:19.108Z,81.63
2019-02-07T20:52:18.507Z,81.84
2019-02-07T20:53:16.538Z,81.74
2019-02-07T20:54:16.627Z,81.91
2019-02-07T20:55:18.422Z,81.49
2019-02-07T20:56:19.517Z,81.69
2019-02-07T20:57:18.481Z,81.63
2019-02-07T20:58:18.798Z,81.55
2019-02-07T20:59:19.527Z,81.64
2019-02-07T21:00:21.466Z,81.54
2019-02-07T21:01:22.331Z,81.13
2019-02-07T21:02:22.121Z,81.44
2019-02-07T21:03:23.065Z,81.58
2019-02-07T21:04:24.745Z,80.85
2019-02-07T21:05:25.305Z,80.83
2019-02-07T21:06:28.309Z,80.26
2019-02-07T21:07:25.816Z,80.22
2019-02-07T21:08:26.707Z,80.05
2019-02-07T21:09:27.814Z,79.81
2019-02-07T21:10:29.351Z,79.68
2019-02-07T21:11:27.685Z,79.96
2019-02-07T21:12:29.257Z,80.29
2019-02-07T21:13:28.959Z,80.36
2019-02-07T21:14:31.862Z,80.43
2019-02-07T21:15:33.090Z,80.34
2019-02-07T21:16:30.688Z,80.48
2019-02-07T21:17:32.607Z,80.45
2019-02-07T21:18:31.632Z,80.60
2019-02-07T21:19:33.147Z,80.03
2019-02-07T21:20:32.803Z,79.95
2019-02-07T21:21:34.123Z,80.12
2019-02-07T21:22:34.878Z,80.26
2019-02-07T21:23:37.040Z,80.57
2019-02-07T21:24:35.551Z,80.95
2019-02-07T21:25:36.508Z,81.09
2019-02-07T21:26:38.139Z,81.28
2019-02-07T21:27:38.764Z,81.60
2019-02-07T21:28:39.496Z,81.85
2019-02-07T21:29:40.283Z,82.09
2019-02-07T21:30:41.164Z,82.10
2019-02-07T21:31:41.159Z,82.16
2019-02-07T21:31:52.628Z,82.22
2019-02-07T21:32:55.489Z,82.21
2019-02-07T21:33:53.624Z,82.44
2019-02-07T21:34:55.559Z,82.69
2019-02-07T21:35:55.311Z,82.81
2019-02-07T21:36:56.627Z,82.64
2019-02-07T21:37:57.240Z,82.59
2019-02-07T21:38:58.026Z,82.75
2019-02-07T21:39:59.015Z,82.87
2019-02-07T21:40:59.565Z,82.90
2019-02-07T21:42:00.294Z,83.00
2019-02-07T21:43:00.684Z,83.05
2019-02-07T21:44:00.636Z,83.30
2019-02-07T21:45:02.591Z,83.54
2019-02-07T21:46:03.613Z,83.87
2019-02-07T21:47:04.216Z,83.93
2019-02-07T21:48:03.754Z,84.16
2019-02-07T21:49:05.531Z,84.24
2019-02-07T21:50:06.249Z,84.26
2019-02-07T21:51:07.007Z,84.40
2019-02-07T21:52:07.789Z,84.40
2019-02-07T21:53:08.352Z,84.42
2019-02-07T21:54:09.224Z,84.43
2019-02-07T21:55:09.889Z,84.53
2019-02-07T21:56:09.553Z,84.75
2019-02-07T21:57:10.930Z,84.78
2019-02-07T21:58:12.144Z,84.91
2019-02-07T21:59:11.544Z,84.94
2019-02-07T22:00:11.968Z,84.79
2019-02-07T22:01:21.077Z,84.68
2019-02-07T22:02:12.843Z,84.45
2019-02-07T22:03:13.422Z,84.41
2019-02-07T22:04:14.282Z,84.29
2019-02-07T22:05:15.993Z,84.39
2019-02-07T22:06:14.815Z,84.15
2019-02-07T22:07:15.567Z,84.27
2019-02-07T22:08:15.548Z,83.86
2019-02-07T22:09:16.463Z,83.84
2019-02-07T22:10:17.151Z,83.92
2019-02-07T22:11:17.984Z,83.99
2019-02-07T22:12:18.610Z,83.78
2019-02-07T22:13:19.602Z,83.70
2019-02-07T22:14:19.892Z,83.90
2019-02-07T22:15:20.587Z,83.59
2019-02-07T22:16:20.801Z,83.51
2019-02-07T22:17:20.720Z,83.83
2019-02-07T22:18:22.417Z,83.99
2019-02-07T22:19:23.362Z,83.92
2019-02-07T22:20:22.296Z,84.26
2019-02-07T22:21:23.303Z,84.23
2019-02-07T22:22:23.659Z,84.11
2019-02-07T22:23:24.234Z,84.19
2019-02-07T22:24:24.300Z,84.29
2019-02-07T22:25:25.546Z,84.63
2019-02-07T22:26:25.963Z,85.05
2019-02-07T22:27:26.072Z,84.93
2019-02-07T22:28:26.358Z,84.95
2019-02-07T22:29:27.167Z,85.06
2019-02-07T22:30:27.682Z,85.40
2019-02-07T22:31:28.661Z,85.74
2019-02-07T22:32:28.848Z,85.74
2019-02-07T22:33:29.050Z,85.80
2019-02-07T22:34:29.271Z,85.39
2019-02-07T22:35:29.492Z,85.39
2019-02-07T22:36:30.263Z,85.58
2019-02-07T22:37:30.548Z,85.53
2019-02-07T22:38:30.775Z,85.59
2019-02-07T22:39:32.585Z,85.59
2019-02-07T22:40:32.418Z,85.68
2019-02-07T22:41:33.995Z,85.94
2019-02-07T22:42:33.318Z,86.18
2019-02-07T22:43:33.380Z,86.39
2019-02-07T22:44:33.816Z,86.08
2019-02-07T22:45:33.960Z,86.06
2019-02-07T22:46:34.719Z,86.13